createdAt,value
2019-02-25T00:00:43.457Z,974.33
2019-02-25T00:01:43.442Z,974.34
2019-02-25T00:02:43.419Z,974.34
2019-02-25T00:03:43.399Z,974.28
2019-02-25T00:04:43.381Z,974.32
2019-02-25T00:05:43.362Z,974.31
2019-02-25T00:06:43.343Z,974.3
2019-02-25T00:07:43.322Z,974.28
2019-02-25T00:08:43.305Z,974.27
2019-02-25T00:09:43.286Z,974.24
2019-02-25T00:10:43.265Z,974.23
2019-02-25T00:11:43.246Z,974.26
2019-02-25T00:12:43.229Z,974.24
2019-02-25T00:13:43.208Z,974.24
2019-02-25T00:14:43.192Z,974.27
2019-02-25T00:15:43.173Z,974.23
2019-02-25T00:16:43.153Z,974.26
2019-02-25T00:17:43.132Z,974.22
2019-02-25T00:18:43.114Z,974.23
2019-02-25T00:19:43.096Z,974.21
2019-02-25T00:20:43.075Z,974.17
2019-02-25T00:21:43.057Z,974.14
2019-02-25T00:22:43.039Z,974.14
2019-02-25T00:23:43.026Z,974.15
2019-02-25T00:24:43.001Z,974.16
2019-02-25T00:25:42.981Z,974.18
2019-02-25T00:26:42.961Z,974.15
2019-02-25T00:27:42.959Z,974.14
2019-02-25T00:28:42.925Z,974.12
2019-02-25T00:29:42.906Z,974.09
2019-02-25T00:30:42.887Z,974.14
2019-02-25T00:31:42.867Z,974.15
2019-02-25T00:32:42.848Z,974.14
2019-02-25T00:33:42.830Z,974.21
2019-02-25T00:34:42.811Z,974.15
2019-02-25T00:35:42.790Z,974.15
2019-02-25T00:36:42.771Z,974.14
2019-02-25T00:37:42.752Z,974.2
2019-02-25T00:38:42.733Z,974.22
2019-02-25T00:39:42.714Z,974.22
2019-02-25T00:40:42.707Z,974.26
2019-02-25T00:41:42.677Z,974.21
2019-02-25T00:42:42.656Z,974.24
2019-02-25T00:43:42.636Z,974.25
2019-02-25T00:44:42.619Z,974.26
2019-02-25T00:45:42.599Z,974.27
2019-02-25T00:46:42.579Z,974.23
2019-02-25T00:47:42.560Z,974.22
2019-02-25T00:48:42.589Z,974.25
2019-02-25T00:49:42.523Z,974.26
2019-02-25T00:50:42.503Z,974.25
2019-02-25T00:51:42.485Z,974.23
2019-02-25T00:52:42.466Z,974.26
2019-02-25T00:53:42.446Z,974.25
2019-02-25T00:54:42.429Z,974.26
2019-02-25T00:55:42.407Z,974.22
2019-02-25T00:56:42.396Z,974.19
2019-02-25T00:57:42.370Z,974.19
2019-02-25T00:58:42.350Z,974.21
2019-02-25T00:59:42.332Z,974.19
2019-02-25T01:00:42.311Z,974.22
2019-02-25T01:01:42.293Z,974.17
2019-02-25T01:02:42.274Z,974.22
2019-02-25T01:03:42.257Z,974.17
2019-02-25T01:04:42.236Z,974.22
2019-02-25T01:05:42.216Z,974.2
2019-02-25T01:06:42.201Z,974.26
2019-02-25T01:07:42.181Z,974.23
2019-02-25T01:08:42.161Z,974.2
2019-02-25T01:09:42.140Z,974.16
2019-02-25T01:10:42.122Z,974.15
2019-02-25T01:11:42.101Z,974.15
2019-02-25T01:12:42.084Z,974.12
2019-02-25T01:13:42.065Z,974.14
2019-02-25T01:14:42.046Z,974.12
2019-02-25T01:15:42.026Z,974.11
2019-02-25T01:16:42.007Z,974.09
2019-02-25T01:17:41.989Z,974.12
2019-02-25T01:18:41.970Z,974.09
2019-02-25T01:19:41.950Z,974.11
2019-02-25T01:20:41.931Z,974.11
2019-02-25T01:21:41.912Z,974.06
2019-02-25T01:22:41.892Z,974.08
2019-02-25T01:23:41.872Z,974.09
2019-02-25T01:24:41.854Z,974.11
2019-02-25T01:25:41.837Z,974.11
2019-02-25T01:26:41.818Z,974.12
2019-02-25T01:27:41.796Z,974.13
2019-02-25T01:28:41.778Z,974.13
2019-02-25T01:29:41.758Z,974.13
2019-02-25T01:30:41.739Z,974.11
2019-02-25T01:31:41.720Z,974.14
2019-02-25T01:32:41.701Z,974.08
2019-02-25T01:33:41.681Z,974.13
2019-02-25T01:34:41.663Z,974.15
2019-02-25T01:35:41.644Z,974.1
2019-02-25T01:36:41.625Z,974.16
2019-02-25T01:37:41.604Z,974.13
2019-02-25T01:38:41.588Z,974.15
2019-02-25T01:39:41.568Z,974.16
2019-02-25T01:40:41.550Z,974.17
2019-02-25T01:41:41.528Z,974.15
2019-02-25T01:42:41.512Z,974.12
2019-02-25T01:43:41.492Z,974.1
2019-02-25T01:44:41.472Z,974.1
2019-02-25T01:45:41.456Z,974.05
2019-02-25T01:46:41.435Z,974
2019-02-25T01:47:41.413Z,974.02
2019-02-25T01:48:41.394Z,973.98
2019-02-25T01:49:41.375Z,973.98
2019-02-25T01:50:41.357Z,973.96
2019-02-25T01:51:41.340Z,973.97
2019-02-25T01:52:41.317Z,973.96
2019-02-25T01:53:41.302Z,973.92
2019-02-25T01:54:41.281Z,973.89
2019-02-25T01:55:41.261Z,973.91
2019-02-25T01:56:41.243Z,973.89
2019-02-25T01:57:41.226Z,973.88
2019-02-25T01:58:41.204Z,973.88
2019-02-25T01:59:41.184Z,973.85
2019-02-25T02:00:41.165Z,973.85
2019-02-25T02:01:41.147Z,973.84
2019-02-25T02:02:41.129Z,973.9
2019-02-25T02:03:41.109Z,973.92
2019-02-25T02:04:41.090Z,973.9
2019-02-25T02:05:41.072Z,973.9
2019-02-25T02:06:41.052Z,973.86
2019-02-25T02:07:41.033Z,973.86
2019-02-25T02:08:41.014Z,973.87
2019-02-25T02:09:40.996Z,973.84
2019-02-25T02:10:40.975Z,973.85
2019-02-25T02:11:40.956Z,973.85
2019-02-25T02:12:40.937Z,973.82
2019-02-25T02:13:40.917Z,973.82
2019-02-25T02:14:40.899Z,973.85
2019-02-25T02:15:40.879Z,973.81
2019-02-25T02:16:40.865Z,973.83
2019-02-25T02:17:40.841Z,973.83
2019-02-25T02:18:40.822Z,973.84
2019-02-25T02:19:40.802Z,973.87
2019-02-25T02:20:40.785Z,973.84
2019-02-25T02:21:40.765Z,973.85
2019-02-25T02:22:40.744Z,973.84
2019-02-25T02:23:40.727Z,973.83
2019-02-25T02:24:40.707Z,973.79
2019-02-25T02:25:40.689Z,973.84
2019-02-25T02:26:40.669Z,973.8
2019-02-25T02:27:40.652Z,973.79
2019-02-25T02:28:40.631Z,973.78
2019-02-25T02:29:40.613Z,973.81
2019-02-25T02:30:40.592Z,973.78
2019-02-25T02:31:40.574Z,973.78
2019-02-25T02:32:40.553Z,973.75
2019-02-25T02:33:40.563Z,973.77
2019-02-25T02:34:40.517Z,973.72
2019-02-25T02:35:40.498Z,973.73
2019-02-25T02:36:40.479Z,973.64
2019-02-25T02:37:40.459Z,973.64
2019-02-25T02:38:40.444Z,973.64
2019-02-25T02:39:40.420Z,973.62
2019-02-25T02:40:40.405Z,973.67
2019-02-25T02:41:40.385Z,973.62
2019-02-25T02:42:40.366Z,973.61
2019-02-25T02:43:40.344Z,973.62
2019-02-25T02:44:40.326Z,973.65
2019-02-25T02:45:40.309Z,973.69
2019-02-25T02:46:40.288Z,973.68
2019-02-25T02:47:40.298Z,973.65
2019-02-25T02:48:40.249Z,973.65
2019-02-25T02:49:40.235Z,973.64
2019-02-25T02:50:40.212Z,973.61
2019-02-25T02:51:40.203Z,973.6
2019-02-25T02:52:40.174Z,973.63
2019-02-25T02:53:40.154Z,973.59
2019-02-25T02:54:40.137Z,973.61
2019-02-25T02:55:40.213Z,973.63
2019-02-25T02:56:40.099Z,973.59
2019-02-25T02:57:40.080Z,973.58
2019-02-25T02:58:40.060Z,973.64
2019-02-25T02:59:40.048Z,973.66
2019-02-25T03:00:40.021Z,973.65
2019-02-25T03:01:40.003Z,973.63
2019-02-25T03:02:39.984Z,973.63
2019-02-25T03:03:39.965Z,973.68
2019-02-25T03:04:39.948Z,973.68
2019-02-25T03:05:39.926Z,973.63
2019-02-25T03:06:39.907Z,973.66
2019-02-25T03:07:39.890Z,973.64
2019-02-25T03:08:39.871Z,973.66
2019-02-25T03:09:39.855Z,973.58
2019-02-25T03:10:39.832Z,973.67
2019-02-25T03:11:39.812Z,973.6
2019-02-25T03:12:39.793Z,973.6
2019-02-25T03:13:39.773Z,973.61
2019-02-25T03:14:39.755Z,973.54
2019-02-25T03:15:39.737Z,973.57
2019-02-25T03:16:39.726Z,973.51
2019-02-25T03:17:39.698Z,973.56
2019-02-25T03:18:39.678Z,973.59
2019-02-25T03:19:39.661Z,973.57
2019-02-25T03:20:39.640Z,973.59
2019-02-25T03:21:39.623Z,973.57
2019-02-25T03:22:39.604Z,973.63
2019-02-25T03:23:39.588Z,973.6
2019-02-25T03:24:39.565Z,973.58
2019-02-25T03:25:39.546Z,973.61
2019-02-25T03:26:39.529Z,973.61
2019-02-25T03:27:39.508Z,973.6
2019-02-25T03:28:39.490Z,973.61
2019-02-25T03:29:39.472Z,973.66
2019-02-25T03:30:39.456Z,973.59
2019-02-25T03:31:39.433Z,973.61
2019-02-25T03:32:39.416Z,973.66
2019-02-25T03:33:39.408Z,973.62
2019-02-25T03:34:39.385Z,973.64
2019-02-25T03:35:39.359Z,973.65
2019-02-25T03:36:39.338Z,973.68
2019-02-25T03:37:39.321Z,973.67
2019-02-25T03:38:39.300Z,973.69
2019-02-25T03:39:39.282Z,973.71
2019-02-25T03:40:39.263Z,973.67
2019-02-25T03:41:39.243Z,973.72
2019-02-25T03:42:39.225Z,973.67
2019-02-25T03:43:39.207Z,973.76
2019-02-25T03:44:39.186Z,973.73
2019-02-25T03:45:39.167Z,973.77
2019-02-25T03:46:39.149Z,973.81
2019-02-25T03:47:39.128Z,973.84
2019-02-25T03:48:39.110Z,973.83
2019-02-25T03:49:39.090Z,973.83
2019-02-25T03:50:39.072Z,973.81
2019-02-25T03:51:39.056Z,973.84
2019-02-25T03:52:39.034Z,973.82
2019-02-25T03:53:39.017Z,973.85
2019-02-25T03:54:38.995Z,973.8
2019-02-25T03:55:38.977Z,973.79
2019-02-25T03:56:38.957Z,973.79
2019-02-25T03:57:38.939Z,973.79
2019-02-25T03:58:38.921Z,973.86
2019-02-25T03:59:38.900Z,973.81
2019-02-25T04:00:38.881Z,973.83
2019-02-25T04:01:38.862Z,973.83
2019-02-25T04:02:38.845Z,973.78
2019-02-25T04:03:38.822Z,973.8
2019-02-25T04:04:38.869Z,973.79
2019-02-25T04:05:38.789Z,973.78
2019-02-25T04:06:38.767Z,973.78
2019-02-25T04:07:38.749Z,973.83
2019-02-25T04:08:38.729Z,973.83
2019-02-25T04:09:38.715Z,973.83
2019-02-25T04:10:38.690Z,973.87
2019-02-25T04:11:38.671Z,973.9
2019-02-25T04:12:38.653Z,973.91
2019-02-25T04:13:38.632Z,973.94
2019-02-25T04:14:38.614Z,973.92
2019-02-25T04:15:38.597Z,973.93
2019-02-25T04:16:38.582Z,973.94
2019-02-25T04:17:38.560Z,973.97
2019-02-25T04:18:38.538Z,973.96
2019-02-25T04:19:38.518Z,973.94
2019-02-25T04:20:38.500Z,973.97
2019-02-25T04:21:38.481Z,973.92
2019-02-25T04:22:38.461Z,973.95
2019-02-25T04:23:38.449Z,973.96
2019-02-25T04:24:38.423Z,973.96
2019-02-25T04:25:38.403Z,973.95
2019-02-25T04:26:38.387Z,973.98
2019-02-25T04:27:38.368Z,973.92
2019-02-25T04:28:38.348Z,973.95
2019-02-25T04:29:38.328Z,973.96
2019-02-25T04:30:38.317Z,973.95
2019-02-25T04:31:38.291Z,973.99
2019-02-25T04:32:38.270Z,973.94
2019-02-25T04:33:38.251Z,973.92
2019-02-25T04:34:38.238Z,973.88
2019-02-25T04:35:38.213Z,973.93
2019-02-25T04:36:38.194Z,973.89
2019-02-25T04:37:38.221Z,973.92
2019-02-25T04:38:38.157Z,973.89
2019-02-25T04:39:38.143Z,973.88
2019-02-25T04:40:38.118Z,973.87
2019-02-25T04:41:38.098Z,973.86
2019-02-25T04:42:38.079Z,973.84
2019-02-25T04:43:38.061Z,973.83
2019-02-25T04:44:38.043Z,973.78
2019-02-25T04:45:38.024Z,973.8
2019-02-25T04:46:38.003Z,973.8
2019-02-25T04:47:37.988Z,973.8
2019-02-25T04:48:37.965Z,973.81
2019-02-25T04:49:37.948Z,973.79
2019-02-25T04:50:37.926Z,973.8
2019-02-25T04:51:37.919Z,973.81
2019-02-25T04:52:37.889Z,973.81
2019-02-25T04:53:37.870Z,973.71
2019-02-25T04:54:37.849Z,973.74
2019-02-25T04:55:37.830Z,973.75
2019-02-25T04:56:37.813Z,973.75
2019-02-25T04:57:37.814Z,973.77
2019-02-25T04:58:37.773Z,973.83
2019-02-25T04:59:37.755Z,973.77
2019-02-25T05:00:37.734Z,973.78
2019-02-25T05:01:37.716Z,973.76
2019-02-25T05:02:37.697Z,973.78
2019-02-25T05:03:37.680Z,973.8
2019-02-25T05:04:37.661Z,973.81
2019-02-25T05:05:37.638Z,973.85
2019-02-25T05:06:37.620Z,973.81
2019-02-25T05:07:37.603Z,973.89
2019-02-25T05:08:37.584Z,973.88
2019-02-25T05:09:37.562Z,973.87
2019-02-25T05:10:37.544Z,973.92
2019-02-25T05:11:37.524Z,973.84
2019-02-25T05:12:37.506Z,973.87
2019-02-25T05:13:37.487Z,973.85
2019-02-25T05:14:37.469Z,973.85
2019-02-25T05:15:37.449Z,973.85
2019-02-25T05:16:37.432Z,973.82
2019-02-25T05:17:37.410Z,973.83
2019-02-25T05:18:37.392Z,973.8
2019-02-25T05:19:37.374Z,973.76
2019-02-25T05:20:37.352Z,973.81
2019-02-25T05:21:37.333Z,973.78
2019-02-25T05:22:37.638Z,973.77
2019-02-25T05:23:37.297Z,973.75
2019-02-25T05:24:37.276Z,973.75
2019-02-25T05:25:37.257Z,973.74
2019-02-25T05:26:37.239Z,973.77
2019-02-25T05:27:37.219Z,973.73
2019-02-25T05:28:37.200Z,973.76
2019-02-25T05:29:37.182Z,973.72
2019-02-25T05:30:37.162Z,973.75
2019-02-25T05:31:37.142Z,973.78
2019-02-25T05:32:37.125Z,973.73
2019-02-25T05:33:37.104Z,973.76
2019-02-25T05:34:37.084Z,973.77
2019-02-25T05:35:37.071Z,973.76
2019-02-25T05:36:37.047Z,973.75
2019-02-25T05:37:37.027Z,973.71
2019-02-25T05:38:37.008Z,973.73
2019-02-25T05:39:36.988Z,973.75
2019-02-25T05:40:36.976Z,973.69
2019-02-25T05:41:36.954Z,973.72
2019-02-25T05:42:36.930Z,973.69
2019-02-25T05:43:36.911Z,973.68
2019-02-25T05:44:36.893Z,973.62
2019-02-25T05:45:36.872Z,973.7
2019-02-25T05:46:36.853Z,973.64
2019-02-25T05:47:36.836Z,973.65
2019-02-25T05:48:36.817Z,973.63
2019-02-25T05:49:36.796Z,973.64
2019-02-25T05:50:36.777Z,973.65
2019-02-25T05:51:36.759Z,973.67
2019-02-25T05:52:36.738Z,973.66
2019-02-25T05:53:36.720Z,973.65
2019-02-25T05:54:36.728Z,973.63
2019-02-25T05:55:36.686Z,973.63
2019-02-25T05:56:36.662Z,973.59
2019-02-25T05:57:36.647Z,973.65
2019-02-25T05:58:36.626Z,973.63
2019-02-25T05:59:36.606Z,973.66
2019-02-25T06:00:36.584Z,973.67
2019-02-25T06:01:36.566Z,973.64
2019-02-25T06:02:36.548Z,973.66
2019-02-25T06:03:36.529Z,973.68
2019-02-25T06:04:36.510Z,973.65
2019-02-25T06:05:36.490Z,973.7
2019-02-25T06:06:36.471Z,973.68
2019-02-25T06:07:36.451Z,973.71
2019-02-25T06:08:36.432Z,973.72
2019-02-25T06:09:36.414Z,973.75
2019-02-25T06:10:36.395Z,973.69
2019-02-25T06:11:36.378Z,973.68
2019-02-25T06:12:36.356Z,973.74
2019-02-25T06:13:36.338Z,973.69
2019-02-25T06:14:36.326Z,973.75
2019-02-25T06:15:36.300Z,973.74
2019-02-25T06:16:36.280Z,973.75
2019-02-25T06:17:36.261Z,973.74
2019-02-25T06:18:36.242Z,973.75
2019-02-25T06:19:36.223Z,973.79
2019-02-25T06:20:36.203Z,973.69
2019-02-25T06:21:36.185Z,973.7
2019-02-25T06:22:36.166Z,973.73
2019-02-25T06:23:36.147Z,973.72
2019-02-25T06:24:36.128Z,973.74
2019-02-25T06:25:36.109Z,973.76
2019-02-25T06:26:36.090Z,973.77
2019-02-25T06:27:36.070Z,973.77
2019-02-25T06:28:36.055Z,973.79
2019-02-25T06:29:36.032Z,973.83
2019-02-25T06:30:36.016Z,973.84
2019-02-25T06:31:35.996Z,973.84
2019-02-25T06:32:35.976Z,973.81
2019-02-25T06:33:35.958Z,973.85
2019-02-25T06:34:35.937Z,973.82
2019-02-25T06:35:35.920Z,973.81
2019-02-25T06:36:35.907Z,973.79
2019-02-25T06:37:35.881Z,973.78
2019-02-25T06:38:35.863Z,973.76
2019-02-25T06:39:35.844Z,973.75
2019-02-25T06:40:35.823Z,973.74
2019-02-25T06:41:35.806Z,973.76
2019-02-25T06:42:35.786Z,973.73
2019-02-25T06:43:35.767Z,973.76
2019-02-25T06:44:35.752Z,973.78
2019-02-25T06:45:35.730Z,973.8
2019-02-25T06:46:35.712Z,973.8
2019-02-25T06:47:35.692Z,973.81
2019-02-25T06:48:35.823Z,973.84
2019-02-25T06:49:35.656Z,973.86
2019-02-25T06:50:35.637Z,973.82
2019-02-25T06:51:35.617Z,973.81
2019-02-25T06:52:35.600Z,973.81
2019-02-25T06:53:35.580Z,973.83
2019-02-25T06:54:35.565Z,973.84
2019-02-25T06:55:35.543Z,973.82
2019-02-25T06:56:35.524Z,973.8
2019-02-25T06:57:35.506Z,973.85
2019-02-25T06:58:35.487Z,973.82
2019-02-25T06:59:35.469Z,973.83
2019-02-25T07:00:35.449Z,973.86
2019-02-25T07:01:35.432Z,973.86
2019-02-25T07:02:35.413Z,973.84
2019-02-25T07:03:35.394Z,973.78
2019-02-25T07:04:35.376Z,973.83
2019-02-25T07:05:35.358Z,973.81
2019-02-25T07:06:35.339Z,973.82
2019-02-25T07:07:35.319Z,973.79
2019-02-25T07:08:35.302Z,973.82
2019-02-25T07:09:35.282Z,973.8
2019-02-25T07:10:35.266Z,973.82
2019-02-25T07:11:35.246Z,973.76
2019-02-25T07:12:35.229Z,973.78
2019-02-25T07:13:35.209Z,973.82
2019-02-25T07:14:35.191Z,973.86
2019-02-25T07:15:35.173Z,973.84
2019-02-25T07:16:35.154Z,973.89
2019-02-25T07:17:35.138Z,973.92
2019-02-25T07:18:35.117Z,973.94
2019-02-25T07:19:35.105Z,973.96
2019-02-25T07:20:35.087Z,973.92
2019-02-25T07:21:35.063Z,974
2019-02-25T07:22:35.045Z,973.99
2019-02-25T07:23:35.027Z,974
2019-02-25T07:24:35.012Z,974.01
2019-02-25T07:25:34.990Z,973.99
2019-02-25T07:26:34.973Z,974.05
2019-02-25T07:27:34.956Z,974.04
2019-02-25T07:28:36.626Z,974.07
2019-02-25T07:29:34.918Z,974.07
2019-02-25T07:30:34.902Z,974.09
2019-02-25T07:31:34.883Z,974.14
2019-02-25T07:32:34.864Z,974.18
2019-02-25T07:33:34.848Z,974.15
2019-02-25T07:34:34.830Z,974.12
2019-02-25T07:35:34.811Z,974.14
2019-02-25T07:36:34.793Z,974.12
2019-02-25T07:37:34.775Z,974.15
2019-02-25T07:38:39.291Z,974.22
2019-02-25T07:39:34.739Z,974.2
2019-02-25T07:40:34.723Z,974.2
2019-02-25T07:41:34.706Z,974.21
2019-02-25T07:42:34.687Z,974.16
2019-02-25T07:43:34.670Z,974.25
2019-02-25T07:44:34.652Z,974.2
2019-02-25T07:45:34.635Z,974.17
2019-02-25T07:46:34.622Z,974.19
2019-02-25T07:47:34.600Z,974.19
2019-02-25T07:48:34.585Z,974.2
2019-02-25T07:49:34.566Z,974.24
2019-02-25T07:50:34.593Z,974.27
2019-02-25T07:51:34.531Z,974.28
2019-02-25T07:52:34.516Z,974.3
2019-02-25T07:53:34.495Z,974.26
2019-02-25T07:54:34.479Z,974.27
2019-02-25T07:55:34.461Z,974.28
2019-02-25T07:56:34.444Z,974.3
2019-02-25T07:57:34.425Z,974.3
2019-02-25T07:58:34.409Z,974.3
2019-02-25T07:59:34.392Z,974.32
2019-02-25T08:00:34.377Z,974.31
2019-02-25T08:01:34.357Z,974.29
2019-02-25T08:02:34.341Z,974.28
2019-02-25T08:03:34.324Z,974.29
2019-02-25T08:04:34.306Z,974.33
2019-02-25T08:05:34.290Z,974.32
2019-02-25T08:06:34.272Z,974.36
2019-02-25T08:07:34.255Z,974.36
2019-02-25T08:08:34.238Z,974.36
2019-02-25T08:09:34.222Z,974.38
2019-02-25T08:10:34.206Z,974.41
2019-02-25T08:11:34.193Z,974.39
2019-02-25T08:12:34.172Z,974.4
2019-02-25T08:13:34.155Z,974.45
2019-02-25T08:14:34.140Z,974.46
2019-02-25T08:15:34.124Z,974.39
2019-02-25T08:16:34.105Z,974.42
2019-02-25T08:17:34.089Z,974.47
2019-02-25T08:18:34.076Z,974.46
2019-02-25T08:19:34.055Z,974.49
2019-02-25T08:20:34.038Z,974.46
2019-02-25T08:21:34.024Z,974.5
2019-02-25T08:22:34.007Z,974.46
2019-02-25T08:23:33.992Z,974.44
2019-02-25T08:24:33.975Z,974.41
2019-02-25T08:25:33.960Z,974.44
2019-02-25T08:26:33.943Z,974.4
2019-02-25T08:27:33.929Z,974.46
2019-02-25T08:28:33.912Z,974.47
2019-02-25T08:29:33.896Z,974.46
2019-02-25T08:30:33.879Z,974.51
2019-02-25T08:31:33.864Z,974.49
2019-02-25T08:32:33.848Z,974.48
2019-02-25T08:33:33.831Z,974.49
2019-02-25T08:34:33.815Z,974.51
2019-02-25T08:35:33.800Z,974.51
2019-02-25T08:36:33.788Z,974.52
2019-02-25T08:37:33.769Z,974.48
2019-02-25T08:38:33.753Z,974.51
2019-02-25T08:39:33.739Z,974.49
2019-02-25T08:40:33.724Z,974.48
2019-02-25T08:41:33.707Z,974.52
2019-02-25T08:42:33.695Z,974.53
2019-02-25T08:43:33.676Z,974.51
2019-02-25T08:44:33.660Z,974.54
2019-02-25T08:45:33.646Z,974.54
2019-02-25T08:46:33.631Z,974.56
2019-02-25T08:47:33.628Z,974.56
2019-02-25T08:48:33.602Z,974.58
2019-02-25T08:49:33.585Z,974.63
2019-02-25T08:50:33.574Z,974.58
2019-02-25T08:51:33.555Z,974.62
2019-02-25T08:52:33.539Z,974.6
2019-02-25T08:53:33.527Z,974.6
2019-02-25T08:54:33.510Z,974.56
2019-02-25T08:55:33.496Z,974.55
2019-02-25T08:56:33.479Z,974.58
2019-02-25T08:57:33.466Z,974.58
2019-02-25T08:58:33.451Z,974.61
2019-02-25T08:59:33.435Z,974.61
2019-02-25T09:00:33.422Z,974.61
2019-02-25T09:01:33.408Z,974.62
2019-02-25T09:02:33.392Z,974.64
2019-02-25T09:03:33.378Z,974.64
2019-02-25T09:04:33.362Z,974.6
2019-02-25T09:05:33.350Z,974.62
2019-02-25T09:06:33.334Z,974.62
2019-02-25T09:07:33.320Z,974.59
2019-02-25T09:08:33.306Z,974.6
2019-02-25T09:09:33.292Z,974.61
2019-02-25T09:10:33.278Z,974.61
2019-02-25T09:11:33.266Z,974.61
2019-02-25T09:12:33.250Z,974.58
2019-02-25T09:13:33.234Z,974.63
2019-02-25T09:14:33.220Z,974.58
2019-02-25T09:15:33.207Z,974.6
2019-02-25T09:16:33.194Z,974.56
2019-02-25T09:17:33.177Z,974.6
2019-02-25T09:18:33.165Z,974.61
2019-02-25T09:19:33.151Z,974.61
2019-02-25T09:20:33.137Z,974.53
2019-02-25T09:21:33.125Z,974.58
2019-02-25T09:22:33.110Z,974.57
2019-02-25T09:23:33.096Z,974.56
2019-02-25T09:24:33.082Z,974.55
2019-02-25T09:25:33.068Z,974.58
2019-02-25T09:26:33.055Z,974.58
2019-02-25T09:27:33.041Z,974.61
2019-02-25T09:28:33.026Z,974.56
2019-02-25T09:29:33.013Z,974.63
2019-02-25T09:30:33.002Z,974.59
2019-02-25T09:31:32.988Z,974.62
2019-02-25T09:32:32.973Z,974.66
2019-02-25T09:33:32.961Z,974.68
2019-02-25T09:34:32.948Z,974.67
2019-02-25T09:35:32.935Z,974.66
2019-02-25T09:36:32.921Z,974.67
2019-02-25T09:37:32.906Z,974.71
2019-02-25T09:38:32.896Z,974.72
2019-02-25T09:39:32.881Z,974.76
2019-02-25T09:40:32.869Z,974.71
2019-02-25T09:41:32.860Z,974.73
2019-02-25T09:42:32.843Z,974.72
2019-02-25T09:43:32.834Z,974.71
2019-02-25T09:44:32.817Z,974.73
2019-02-25T09:45:32.804Z,974.76
2019-02-25T09:46:32.794Z,974.75
2019-02-25T09:47:32.778Z,974.77
2019-02-25T09:48:32.764Z,974.74
2019-02-25T09:49:32.752Z,974.77
2019-02-25T09:50:32.740Z,974.76
2019-02-25T09:51:32.726Z,974.75
2019-02-25T09:52:32.714Z,974.74
2019-02-25T09:53:32.703Z,974.77
2019-02-25T09:54:32.688Z,974.77
2019-02-25T09:55:32.676Z,974.78
2019-02-25T09:56:32.664Z,974.78
2019-02-25T09:57:32.654Z,974.81
2019-02-25T09:58:32.640Z,974.75
2019-02-25T09:59:32.628Z,974.75
2019-02-25T10:00:32.616Z,974.74
2019-02-25T10:01:32.602Z,974.76
2019-02-25T10:02:32.590Z,974.7
2019-02-25T10:03:32.579Z,974.69
2019-02-25T10:04:32.566Z,974.66
2019-02-25T10:05:32.554Z,974.6
2019-02-25T10:06:32.541Z,974.62
2019-02-25T10:07:32.529Z,974.62
2019-02-25T10:08:32.516Z,974.61
2019-02-25T10:09:32.569Z,974.6
2019-02-25T10:10:32.492Z,974.61
2019-02-25T10:11:32.480Z,974.63
2019-02-25T10:12:32.468Z,974.64
2019-02-25T10:13:32.456Z,974.67
2019-02-25T10:14:32.445Z,974.65
2019-02-25T10:15:32.433Z,974.68
2019-02-25T10:16:32.421Z,974.7
2019-02-25T10:17:32.409Z,974.72
2019-02-25T10:18:32.397Z,974.69
2019-02-25T10:19:32.385Z,974.66
2019-02-25T10:20:32.373Z,974.68
2019-02-25T10:21:32.361Z,974.66
2019-02-25T10:22:32.857Z,974.7
2019-02-25T10:23:32.337Z,974.67
2019-02-25T10:24:32.325Z,974.65
2019-02-25T10:25:32.315Z,974.66
2019-02-25T10:26:32.306Z,974.69
2019-02-25T10:27:32.290Z,974.63
2019-02-25T10:28:32.278Z,974.61
2019-02-25T10:29:32.268Z,974.61
2019-02-25T10:30:32.255Z,974.58
2019-02-25T10:31:32.244Z,974.58
2019-02-25T10:32:32.233Z,974.59
2019-02-25T10:33:32.222Z,974.59
2019-02-25T10:34:32.209Z,974.6
2019-02-25T10:35:32.199Z,974.61
2019-02-25T10:36:32.186Z,974.62
2019-02-25T10:37:32.175Z,974.61
2019-02-25T10:38:32.163Z,974.53
2019-02-25T10:39:32.153Z,974.57
2019-02-25T10:40:32.144Z,974.56
2019-02-25T10:41:32.130Z,974.57
2019-02-25T10:42:33.459Z,974.58
2019-02-25T10:43:33.990Z,974.54
2019-02-25T10:44:33.876Z,974.55
2019-02-25T10:45:32.085Z,974.52
2019-02-25T10:46:32.072Z,974.5
2019-02-25T10:47:32.063Z,974.51
2019-02-25T10:48:32.053Z,974.55
2019-02-25T10:49:33.671Z,974.49
2019-02-25T10:50:33.452Z,974.5
2019-02-25T10:51:32.018Z,974.46
2019-02-25T10:52:32.005Z,974.48
2019-02-25T10:53:31.998Z,974.47
2019-02-25T10:54:31.984Z,974.48
2019-02-25T10:55:31.974Z,974.49
2019-02-25T10:56:31.962Z,974.54
2019-02-25T10:57:31.950Z,974.5
2019-02-25T10:58:33.593Z,974.52
2019-02-25T10:59:32.680Z,974.48
2019-02-25T11:00:31.917Z,974.47
2019-02-25T11:01:31.907Z,974.46
2019-02-25T11:02:31.897Z,974.47
2019-02-25T11:03:31.894Z,974.44
2019-02-25T11:04:31.874Z,974.44
2019-02-25T11:05:31.863Z,974.44
2019-02-25T11:06:35.412Z,974.4
2019-02-25T11:07:32.776Z,974.39
2019-02-25T11:08:31.832Z,974.38
2019-02-25T11:09:31.821Z,974.37
2019-02-25T11:10:31.810Z,974.36
2019-02-25T11:11:31.799Z,974.36
2019-02-25T11:12:32.171Z,974.32
2019-02-25T11:13:32.241Z,974.3
2019-02-25T11:14:33.277Z,974.34
2019-02-25T11:15:31.755Z,974.33
2019-02-25T11:16:31.746Z,974.27
2019-02-25T11:17:31.736Z,974.32
2019-02-25T11:18:31.723Z,974.31
2019-02-25T11:19:32.897Z,974.31
2019-02-25T11:20:33.050Z,974.27
2019-02-25T11:21:32.903Z,974.28
2019-02-25T11:22:31.682Z,974.28
2019-02-25T11:23:31.672Z,974.32
2019-02-25T11:24:31.661Z,974.31
2019-02-25T11:25:31.650Z,974.31
2019-02-25T11:26:32.825Z,974.28
2019-02-25T11:27:33.141Z,974.28
2019-02-25T11:28:32.197Z,974.26
2019-02-25T11:29:31.609Z,974.22
2019-02-25T11:30:31.598Z,974.25
2019-02-25T11:31:31.589Z,974.28
2019-02-25T11:32:31.582Z,974.25
2019-02-25T11:33:32.477Z,974.25
2019-02-25T11:34:33.191Z,974.25
2019-02-25T11:35:31.550Z,974.29
2019-02-25T11:36:31.538Z,974.26
2019-02-25T11:37:31.529Z,974.29
2019-02-25T11:38:35.321Z,974.3
2019-02-25T11:39:32.601Z,974.27
2019-02-25T11:40:33.591Z,974.24
2019-02-25T11:41:32.321Z,974.17
2019-02-25T11:42:31.478Z,974.21
2019-02-25T11:43:31.468Z,974.13
2019-02-25T11:44:31.457Z,974.16
2019-02-25T11:45:31.447Z,974.12
2019-02-25T11:46:31.440Z,974.13
2019-02-25T11:47:31.428Z,974.11
2019-02-25T11:48:31.417Z,974.1
2019-02-25T11:49:31.407Z,974.07
2019-02-25T11:50:31.398Z,974.1
2019-02-25T11:51:31.388Z,974.05
2019-02-25T11:52:31.377Z,974
2019-02-25T11:53:31.367Z,974.01
2019-02-25T11:54:31.357Z,973.98
2019-02-25T11:55:31.347Z,973.96
2019-02-25T11:56:31.339Z,973.91
2019-02-25T11:57:31.329Z,973.95
2019-02-25T11:58:31.318Z,973.93
2019-02-25T11:59:31.335Z,973.9
2019-02-25T12:00:31.299Z,973.89
2019-02-25T12:01:31.290Z,973.88
2019-02-25T12:02:31.280Z,973.84
2019-02-25T12:03:31.269Z,973.85
2019-02-25T12:04:31.261Z,973.83
2019-02-25T12:05:31.250Z,973.83
2019-02-25T12:06:31.240Z,973.82
2019-02-25T12:07:31.231Z,973.78
2019-02-25T12:08:31.221Z,973.76
2019-02-25T12:09:31.211Z,973.77
2019-02-25T12:10:31.203Z,973.73
2019-02-25T12:11:31.192Z,973.76
2019-02-25T12:12:31.186Z,973.7
2019-02-25T12:13:31.173Z,973.71
2019-02-25T12:14:31.164Z,973.71
2019-02-25T12:15:31.155Z,973.62
2019-02-25T12:16:31.145Z,973.64
2019-02-25T12:17:31.135Z,973.63
2019-02-25T12:18:31.126Z,973.64
2019-02-25T12:19:31.119Z,973.61
2019-02-25T12:20:31.109Z,973.59
2019-02-25T12:21:31.097Z,973.54
2019-02-25T12:22:31.089Z,973.55
2019-02-25T12:23:31.078Z,973.53
2019-02-25T12:24:31.069Z,973.5
2019-02-25T12:25:31.060Z,973.49
2019-02-25T12:26:31.051Z,973.48
2019-02-25T12:27:31.040Z,973.43
2019-02-25T12:28:31.033Z,973.43
2019-02-25T12:29:31.056Z,973.37
2019-02-25T12:30:31.013Z,973.35